Time;durP1;ratioP1;P1;durP2;ratioP2;P2;SDS_P1;SDS_P2;PMS_P1;PMS_P2;Temp;Humidity;BMP_temperature;BMP_pressure;BME280_temperature;BME280_humidity;BME280_pressure;Samples;Min_cycle;Max_cycle;Signal;HPM_P1;HPM_P2
2023/07/26 00:00:35;;;;;;;3.17;1.50;;;;;;;;;;5013476;28;20050;-77
2023/07/26 00:03:03;;;;;;;2.88;1.42;;;;;;;;;;5013192;28;20060;-77
2023/07/26 00:05:30;;;;;;;3.70;1.70;;;;;;;;;;5020649;28;20513;-77
2023/07/26 00:07:58;;;;;;;2.85;1.67;;;;;;;;;;5052553;28;20059;-77
2023/07/26 00:10:25;;;;;;;3.17;1.52;;;;;;;;;;5052436;28;20049;-77
2023/07/26 00:12:52;;;;;;;3.97;1.50;;;;;;;;;;5033176;28;20061;-77
2023/07/26 00:15:19;;;;;;;2.50;1.33;;;;;;;;;;5040411;28;20049;-77
2023/07/26 00:17:45;;;;;;;2.55;1.48;;;;;;;;;;5052406;28;20049;-77
2023/07/26 00:20:12;;;;;;;3.08;1.33;;;;;;;;;;5052231;28;20152;-77
2023/07/26 00:22:39;;;;;;;2.70;1.42;;;;;;;;;;5052365;28;20056;-78
2023/07/26 00:25:08;;;;;;;3.22;1.40;;;;;;;;;;5049192;28;20059;-77
2023/07/26 00:27:35;;;;;;;2.60;1.50;;;;;;;;;;5052254;28;20053;-77
2023/07/26 00:30:01;;;;;;;2.63;1.50;;;;;;;;;;5047108;28;20105;-77
2023/07/26 00:32:31;;;;;;;3.92;1.60;;;;;;;;;;5052036;28;20053;-77
2023/07/26 00:34:59;;;;;;;2.53;1.30;;;;;;;;;;5051782;28;20052;-77
2023/07/26 00:37:25;;;;;;;3.22;1.60;;;;;;;;;;5048537;28;20386;-77
2023/07/26 00:39:52;;;;;;;4.65;1.63;;;;;;;;;;5032445;28;20525;-77
2023/07/26 00:42:20;;;;;;;2.63;1.50;;;;;;;;;;5036410;28;20429;-77
2023/07/26 00:44:47;;;;;;;4.55;1.63;;;;;;;;;;5034065;28;20057;-77
2023/07/26 00:47:14;;;;;;;3.40;1.67;;;;;;;;;;5036498;28;20057;-77
2023/07/26 00:49:41;;;;;;;4.80;1.65;;;;;;;;;;5036245;28;20068;-77
2023/07/26 00:52:12;;;;;;;2.22;1.20;;;;;;;;;;5036297;28;20057;-77
2023/07/26 00:54:39;;;;;;;3.08;1.48;;;;;;;;;;5051151;28;20053;-77
2023/07/26 00:57:06;;;;;;;3.40;1.60;;;;;;;;;;5056041;28;20053;-77
2023/07/26 00:59:36;;;;;;;2.63;1.30;;;;;;;;;;5040393;28;20053;-78
2023/07/26 01:02:03;;;;;;;3.88;1.40;;;;;;;;;;5016498;28;20050;-74
2023/07/26 01:04:36;;;;;;;3.50;1.20;;;;;;;;;;5015941;28;20050;-75
2023/07/26 01:07:07;;;;;;;3.35;1.50;;;;;;;;;;5016175;28;20402;-75
2023/07/26 01:09:41;;;;;;;2.20;1.60;;;;;;;;;;5015959;28;20054;-74
2023/07/26 01:12:11;;;;;;;2.95;1.40;;;;;;;;;;5028838;28;20061;-74
2023/07/26 01:14:41;;;;;;;2.53;1.35;;;;;;;;;;5035580;28;20056;-73
2023/07/26 01:17:08;;;;;;;2.30;1.50;;;;;;;;;;5025609;28;20050;-74
2023/07/26 01:19:35;;;;;;;3.58;1.67;;;;;;;;;;5015454;28;20057;-75
2023/07/26 01:22:04;;;;;;;3.08;1.48;;;;;;;;;;5015783;28;20077;-75
2023/07/26 01:24:31;;;;;;;2.72;1.60;;;;;;;;;;5016054;28;20064;-75
2023/07/26 01:26:58;;;;;;;3.95;1.52;;;;;;;;;;5015929;28;20088;-75
2023/07/26 01:29:28;;;;;;;2.63;1.48;;;;;;;;;;5022464;28;20053;-75
2023/07/26 01:31:58;;;;;;;3.17;1.33;;;;;;;;;;5055417;28;20063;-75
2023/07/26 01:34:25;;;;;;;3.53;1.58;;;;;;;;;;5055247;28;20387;-75
2023/07/26 01:36:55;;;;;;;3.35;1.52;;;;;;;;;;5054904;28;20060;-75
2023/07/26 01:39:24;;;;;;;6.93;1.83;;;;;;;;;;5048453;28;20054;-75
2023/07/26 01:41:51;;;;;;;3.13;1.48;;;;;;;;;;5035486;28;20057;-75
2023/07/26 01:44:20;;;;;;;2.40;1.70;;;;;;;;;;5033569;28;20049;-74
2023/07/26 01:46:47;;;;;;;1.83;1.23;;;;;;;;;;5035380;28;20053;-74
2023/07/26 01:49:21;;;;;;;2.85;1.60;;;;;;;;;;5034898;28;20057;-74
2023/07/26 01:51:47;;;;;;;3.10;1.33;;;;;;;;;;5033639;28;20407;-74
2023/07/26 01:54:14;;;;;;;2.88;1.50;;;;;;;;;;5035159;28;20060;-74
2023/07/26 01:56:44;;;;;;;4.78;1.50;;;;;;;;;;5034959;28;20049;-74
2023/07/26 01:59:10;;;;;;;;;;;;;;;;;;5034624;28;20045;-74
2023/07/26 02:01:37;;;;;;;3.28;1.58;;;;;;;;;;5015538;28;19921;-74
2023/07/26 02:04:04;;;;;;;3.95;1.90;;;;;;;;;;5014798;28;20060;-74
2023/07/26 02:06:31;;;;;;;2.05;1.42;;;;;;;;;;5015417;28;20140;-77
2023/07/26 02:08:57;;;;;;;4.72;1.95;;;;;;;;;;5014890;28;20502;-77
2023/07/26 02:11:24;;;;;;;3.58;1.58;;;;;;;;;;5022002;28;20054;-77
2023/07/26 02:13:53;;;;;;;2.65;1.58;;;;;;;;;;5028333;28;20061;-77
2023/07/26 02:16:19;;;;;;;3.53;1.60;;;;;;;;;;5014846;28;20054;-77
2023/07/26 02:18:49;;;;;;;4.97;1.60;;;;;;;;;;5014763;28;20475;-77
2023/07/26 02:21:16;;;;;;;4.32;2.05;;;;;;;;;;5014844;28;20077;-77
2023/07/26 02:23:43;;;;;;;3.50;1.88;;;;;;;;;;5014820;28;20058;-77
2023/07/26 02:26:10;;;;;;;2.75;1.40;;;;;;;;;;5014482;28;20058;-77
2023/07/26 02:28:38;;;;;;;3.05;1.50;;;;;;;;;;5020516;28;20080;-78
2023/07/26 02:31:06;;;;;;;2.97;1.58;;;;;;;;;;5034625;28;20049;-77
2023/07/26 02:33:36;;;;;;;3.60;2.33;;;;;;;;;;5033988;28;20061;-77
2023/07/26 02:36:03;;;;;;;;;;;;;;;;;;5034757;28;20383;-77
2023/07/26 02:38:29;;;;;;;3.08;1.42;;;;;;;;;;5034339;28;19921;-77
2023/07/26 02:40:56;;;;;;;3.80;1.70;;;;;;;;;;5034266;28;20068;-77
2023/07/26 02:43:23;;;;;;;3.28;1.50;;;;;;;;;;5026121;28;20058;-77
2023/07/26 02:45:50;;;;;;;3.33;1.60;;;;;;;;;;5014429;28;20057;-77
2023/07/26 02:48:18;;;;;;;3.22;1.60;;;;;;;;;;5013918;28;20061;-77
2023/07/26 02:50:45;;;;;;;3.90;1.85;;;;;;;;;;5014439;28;20053;-78
2023/07/26 02:53:12;;;;;;;4.55;1.63;;;;;;;;;;5014648;28;20482;-75
2023/07/26 02:55:40;;;;;;;3.95;1.63;;;;;;;;;;5013713;28;20053;-74
2023/07/26 02:58:09;;;;;;;3.10;1.70;;;;;;;;;;5014284;28;20056;-74
2023/07/26 03:00:36;;;;;;;3.40;1.80;;;;;;;;;;5014285;28;20477;-75
2023/07/26 03:03:03;;;;;;;2.75;1.52;;;;;;;;;;5013815;28;21044;-74
2023/07/26 03:05:33;;;;;;;3.85;1.67;;;;;;;;;;5013870;28;20459;-74
2023/07/26 03:07:59;;;;;;;2.30;1.65;;;;;;;;;;5013883;28;20057;-74
2023/07/26 03:10:26;;;;;;;2.95;1.85;;;;;;;;;;5022688;28;20521;-74
2023/07/26 03:12:53;;;;;;;3.13;1.63;;;;;;;;;;5030340;28;20068;-74
2023/07/26 03:15:20;;;;;;;4.53;1.55;;;;;;;;;;5042504;28;20080;-74
2023/07/26 03:17:46;;;;;;;3.40;1.98;;;;;;;;;;5053203;28;20057;-74
2023/07/26 03:20:13;;;;;;;4.18;1.80;;;;;;;;;;5053083;28;20375;-75
2023/07/26 03:22:41;;;;;;;5.03;1.83;;;;;;;;;;5053270;28;20056;-74
2023/07/26 03:25:09;;;;;;;3.38;2.00;;;;;;;;;;5053174;28;20478;-74
2023/07/26 03:27:35;;;;;;;3.95;1.95;;;;;;;;;;5053021;28;20057;-74
2023/07/26 03:30:02;;;;;;;4.45;2.35;;;;;;;;;;5023287;28;20045;-74
2023/07/26 03:32:29;;;;;;;5.90;2.95;;;;;;;;;;5020411;28;20057;-74
2023/07/26 03:34:56;;;;;;;8.15;3.13;;;;;;;;;;5012891;28;20053;-74
2023/07/26 03:37:23;;;;;;;11.63;3.40;;;;;;;;;;5013356;28;20053;-74
2023/07/26 03:39:51;;;;;;;7.70;3.13;;;;;;;;;;5013118;28;20049;-74
2023/07/26 03:42:18;;;;;;;6.72;3.67;;;;;;;;;;5022858;28;20053;-74
2023/07/26 03:44:45;;;;;;;5.45;2.97;;;;;;;;;;5026266;28;20057;-75
2023/07/26 03:47:11;;;;;;;5.15;3.05;;;;;;;;;;5033159;28;20060;-75
2023/07/26 03:49:39;;;;;;;5.38;3.33;;;;;;;;;;5032696;28;20057;-74
2023/07/26 03:52:06;;;;;;;3.65;2.58;;;;;;;;;;5033051;28;20067;-74
2023/07/26 03:54:33;;;;;;;6.53;3.08;;;;;;;;;;5033192;28;20103;-75
2023/07/26 03:57:01;;;;;;;4.07;2.70;;;;;;;;;;5032982;28;20363;-75
2023/07/26 03:59:28;;;;;;;5.97;3.80;;;;;;;;;;5033477;28;20057;-75
2023/07/26 04:01:55;;;;;;;4.35;3.30;;;;;;;;;;5012775;28;20050;-74
2023/07/26 04:04:22;;;;;;;4.45;2.70;;;;;;;;;;5012742;28;20058;-75
2023/07/26 04:06:48;;;;;;;3.95;2.92;;;;;;;;;;5012655;28;20480;-75
2023/07/26 04:09:15;;;;;;;4.28;3.13;;;;;;;;;;5012705;28;20488;-75
2023/07/26 04:11:42;;;;;;;4.70;3.13;;;;;;;;;;5038491;28;20048;-75
2023/07/26 04:14:10;;;;;;;4.88;3.20;;;;;;;;;;5016349;28;20065;-75
2023/07/26 04:16:37;;;;;;;4.63;3.40;;;;;;;;;;5011944;28;20472;-75
2023/07/26 04:19:06;;;;;;;6.05;3.72;;;;;;;;;;5012180;28;20053;-75
2023/07/26 04:21:33;;;;;;;5.85;3.83;;;;;;;;;;5018557;28;20140;-74
2023/07/26 04:24:00;;;;;;;5.05;3.60;;;;;;;;;;5012698;28;20057;-75
2023/07/26 04:26:26;;;;;;;6.25;3.92;;;;;;;;;;5012342;28;20053;-75
2023/07/26 04:28:53;;;;;;;8.05;4.32;;;;;;;;;;5025943;28;20375;-74
2023/07/26 04:31:21;;;;;;;6.88;3.95;;;;;;;;;;5031815;28;20568;-74
2023/07/26 04:33:50;;;;;;;6.38;3.78;;;;;;;;;;5052122;28;20057;-75
2023/07/26 04:36:17;;;;;;;7.80;5.22;;;;;;;;;;5052060;28;20394;-74
2023/07/26 04:38:44;;;;;;;7.68;4.70;;;;;;;;;;5045724;28;20388;-75
2023/07/26 04:41:11;;;;;;;5.30;4.05;;;;;;;;;;5037263;28;20055;-75
2023/07/26 04:43:37;;;;;;;6.43;3.90;;;;;;;;;;5049946;28;20053;-75
2023/07/26 04:46:05;;;;;;;6.07;3.95;;;;;;;;;;5051540;28;20060;-75
2023/07/26 04:48:33;;;;;;;6.22;4.28;;;;;;;;;;5035944;28;20057;-74
2023/07/26 04:51:00;;;;;;;5.30;3.78;;;;;;;;;;5032258;28;20501;-75
2023/07/26 04:53:26;;;;;;;6.53;4.50;;;;;;;;;;5032223;28;20426;-74
2023/07/26 04:55:53;;;;;;;7.43;4.32;;;;;;;;;;5029603;28;20497;-75
2023/07/26 04:58:20;;;;;;;7.22;4.60;;;;;;;;;;5048523;28;20049;-74
2023/07/26 05:00:47;;;;;;;5.35;4.10;;;;;;;;;;5026675;28;20053;-74
2023/07/26 05:03:14;;;;;;;4.68;4.05;;;;;;;;;;5040551;28;20064;-74
2023/07/26 05:05:45;;;;;;;7.22;5.13;;;;;;;;;;5033686;28;20410;-74
2023/07/26 05:08:12;;;;;;;8.00;4.45;;;;;;;;;;5046051;28;20049;-74
2023/07/26 05:10:39;;;;;;;6.22;5.00;;;;;;;;;;5051309;28;20052;-74
2023/07/26 05:13:05;;;;;;;7.47;4.28;;;;;;;;;;5042708;28;20545;-74
2023/07/26 05:15:32;;;;;;;8.43;4.25;;;;;;;;;;5051249;28;20057;-74
2023/07/26 05:17:59;;;;;;;7.85;5.38;;;;;;;;;;5036266;28;20491;-74
2023/07/26 05:20:26;;;;;;;5.88;4.53;;;;;;;;;;5038603;28;20048;-74
2023/07/26 05:22:54;;;;;;;6.07;4.47;;;;;;;;;;5034191;28;20062;-74
2023/07/26 05:25:21;;;;;;;6.50;4.22;;;;;;;;;;5011677;28;20053;-74
2023/07/26 05:27:48;;;;;;;8.02;5.07;;;;;;;;;;5029835;28;20049;-74
2023/07/26 05:30:15;;;;;;;5.65;4.65;;;;;;;;;;5034174;28;20048;-74
2023/07/26 05:32:42;;;;;;;6.68;4.57;;;;;;;;;;5028467;28;22069;-74
2023/07/26 05:35:11;;;;;;;6.63;4.93;;;;;;;;;;5033176;28;20060;-74
2023/07/26 05:37:38;;;;;;;6.10;4.40;;;;;;;;;;5033053;28;20379;-75
2023/07/26 05:40:07;;;;;;;8.77;5.78;;;;;;;;;;5028386;28;20475;-74
2023/07/26 05:42:35;;;;;;;6.53;4.30;;;;;;;;;;5031602;28;20069;-74
2023/07/26 05:45:01;;;;;;;6.70;4.68;;;;;;;;;;5033612;28;20057;-74
2023/07/26 05:47:30;;;;;;;5.80;4.40;;;;;;;;;;5032892;28;20060;-74
2023/07/26 05:49:57;;;;;;;9.07;5.60;;;;;;;;;;5033538;28;20499;-74
2023/07/26 05:52:24;;;;;;;4.68;3.72;;;;;;;;;;5034301;28;20410;-74
2023/07/26 05:54:50;;;;;;;7.45;4.65;;;;;;;;;;5032714;28;20498;-74
2023/07/26 05:57:19;;;;;;;6.40;4.40;;;;;;;;;;5030787;28;20065;-75
2023/07/26 05:59:45;;;;;;;4.78;4.20;;;;;;;;;;5032863;28;20061;-74
2023/07/26 06:02:12;;;;;;;4.97;3.58;;;;;;;;;;5032735;28;20056;-75
2023/07/26 06:04:40;;;;;;;5.35;4.10;;;;;;;;;;5033189;28;20053;-73
2023/07/26 06:07:07;;;;;;;3.88;3.08;;;;;;;;;;5031064;28;20485;-74
2023/07/26 06:09:34;;;;;;;6.60;4.15;;;;;;;;;;5030272;28;20056;-73
2023/07/26 06:12:01;;;;;;;4.60;3.40;;;;;;;;;;5024740;28;20065;-72
2023/07/26 06:14:30;;;;;;;3.67;3.13;;;;;;;;;;5026564;28;20054;-74
2023/07/26 06:16:57;;;;;;;5.47;3.20;;;;;;;;;;5028057;28;20050;-74
2023/07/26 06:19:23;;;;;;;3.83;3.30;;;;;;;;;;5026303;28;20061;-73
2023/07/26 06:21:55;;;;;;;4.15;2.60;;;;;;;;;;5027810;28;20061;-76
2023/07/26 06:24:21;;;;;;;4.03;2.60;;;;;;;;;;5027482;28;20522;-77
2023/07/26 06:26:48;;;;;;;4.15;2.70;;;;;;;;;;5026176;28;20069;-77
2023/07/26 06:29:15;;;;;;;4.75;2.90;;;;;;;;;;5027999;28;20045;-76
2023/07/26 06:31:43;;;;;;;3.50;2.63;;;;;;;;;;5027628;28;20478;-77
2023/07/26 06:34:10;;;;;;;3.95;2.95;;;;;;;;;;5026930;28;20236;-75
2023/07/26 06:36:36;;;;;;;5.28;2.78;;;;;;;;;;5027500;28;20080;-76
2023/07/26 06:39:04;;;;;;;3.40;2.72;;;;;;;;;;5026112;28;20403;-76
2023/07/26 06:41:30;;;;;;;3.75;2.55;;;;;;;;;;5025740;28;20057;-76
2023/07/26 06:43:57;;;;;;;3.80;2.78;;;;;;;;;;5027575;28;20430;-77
2023/07/26 06:46:24;;;;;;;3.67;2.40;;;;;;;;;;5026456;28;20068;-76
2023/07/26 06:48:52;;;;;;;4.50;2.50;;;;;;;;;;5027291;28;20053;-75
2023/07/26 06:51:19;;;;;;;3.38;2.25;;;;;;;;;;5026207;28;20053;-76
2023/07/26 06:53:46;;;;;;;3.13;2.45;;;;;;;;;;5027405;28;20049;-76
2023/07/26 06:56:13;;;;;;;7.80;5.35;;;;;;;;;;5027532;28;20406;-76
2023/07/26 06:58:40;;;;;;;3.53;2.80;;;;;;;;;;5027169;28;20057;-76
2023/07/26 07:01:15;;;;;;;3.78;2.58;;;;;;;;;;5026248;28;20410;-78
2023/07/26 07:03:42;;;;;;;4.82;2.63;;;;;;;;;;5026609;28;20057;-76
2023/07/26 07:06:10;;;;;;;4.25;2.50;;;;;;;;;;5026939;28;20163;-76
2023/07/26 07:08:37;;;;;;;3.72;2.72;;;;;;;;;;5025053;28;20069;-77
2023/07/26 07:11:04;;;;;;;4.05;2.60;;;;;;;;;;5022695;28;20049;-77
2023/07/26 07:13:33;;;;;;;4.07;2.50;;;;;;;;;;5028980;28;20060;-77
2023/07/26 07:16:00;;;;;;;4.95;2.65;;;;;;;;;;5024967;28;20490;-77
2023/07/26 07:18:27;;;;;;;3.65;2.25;;;;;;;;;;5027708;28;20506;-77
2023/07/26 07:20:57;;;;;;;5.53;3.08;;;;;;;;;;5024875;28;20410;-79
2023/07/26 07:23:26;;;;;;;5.18;2.70;;;;;;;;;;5023859;28;20053;-79
2023/07/26 07:25:53;;;;;;;3.70;2.65;;;;;;;;;;5026689;28;20510;-78
2023/07/26 07:28:19;;;;;;;5.18;2.88;;;;;;;;;;5030409;28;20179;-78
2023/07/26 07:30:46;;;;;;;3.75;2.75;;;;;;;;;;5028492;28;20049;-78
2023/07/26 07:33:13;;;;;;;5.07;2.83;;;;;;;;;;5025982;28;20053;-79
2023/07/26 07:35:40;;;;;;;6.28;3.40;;;;;;;;;;5025273;28;20456;-79
2023/07/26 07:38:07;;;;;;;4.25;3.25;;;;;;;;;;5018673;28;20065;-75
2023/07/26 07:40:35;;;;;;;4.95;3.33;;;;;;;;;;5018512;28;20060;-76
2023/07/26 07:43:02;;;;;;;5.72;4.13;;;;;;;;;;5024540;28;20057;-75
2023/07/26 07:45:30;;;;;;;8.65;4.07;;;;;;;;;;5019680;28;20050;-77
2023/07/26 07:47:56;;;;;;;5.22;4.00;;;;;;;;;;5030765;28;20052;-78
2023/07/26 07:50:23;;;;;;;5.15;4.32;;;;;;;;;;5025143;28;20064;-76
2023/07/26 07:52:50;;;;;;;5.88;3.35;;;;;;;;;;5024538;28;20056;-77
2023/07/26 07:55:17;;;;;;;7.20;3.53;;;;;;;;;;5025108;28;20053;-75
2023/07/26 07:57:45;;;;;;;4.72;3.78;;;;;;;;;;5028186;28;20058;-77
2023/07/26 08:00:12;;;;;;;4.25;3.70;;;;;;;;;;5027176;28;20060;-76
2023/07/26 08:02:46;;;;;;;4.10;3.70;;;;;;;;;;5027094;28;20744;-78
2023/07/26 08:05:13;;;;;;;5.80;3.40;;;;;;;;;;5025317;28;20057;-77
2023/07/26 08:07:40;;;;;;;5.28;3.55;;;;;;;;;;5025063;28;20057;-76
2023/07/26 08:10:07;;;;;;;5.68;3.63;;;;;;;;;;5027136;28;20057;-76
2023/07/26 08:12:34;;;;;;;5.53;3.92;;;;;;;;;;5024999;28;20064;-77
2023/07/26 08:15:02;;;;;;;5.10;3.53;;;;;;;;;;5027059;28;20064;-76
2023/07/26 08:17:29;;;;;;;4.85;3.35;;;;;;;;;;5027376;28;20053;-77
2023/07/26 08:19:56;;;;;;;4.32;2.95;;;;;;;;;;5027349;28;20060;-76
2023/07/26 08:22:23;;;;;;;4.63;2.88;;;;;;;;;;5027037;28;20060;-76
2023/07/26 08:24:52;;;;;;;4.50;3.15;;;;;;;;;;5028535;28;20049;-77
2023/07/26 08:27:18;;;;;;;4.28;3.25;;;;;;;;;;5025606;28;20053;-78
2023/07/26 08:29:45;;;;;;;4.82;3.50;;;;;;;;;;5029042;28;20399;-78
2023/07/26 08:32:13;;;;;;;5.57;3.58;;;;;;;;;;5029247;28;20045;-77
2023/07/26 08:34:40;;;;;;;4.65;3.55;;;;;;;;;;5028975;28;20061;-81
2023/07/26 08:37:08;;;;;;;4.25;2.40;;;;;;;;;;5027492;28;20454;-81
2023/07/26 08:39:35;;;;;;;5.93;3.00;;;;;;;;;;5024074;28;20053;-82
2023/07/26 08:42:02;;;;;;;5.22;2.80;;;;;;;;;;5024878;28;20054;-81
2023/07/26 08:44:30;;;;;;;5.45;2.97;;;;;;;;;;5027390;28;20064;-81
2023/07/26 08:46:57;;;;;;;4.97;3.03;;;;;;;;;;5026719;28;20410;-81
2023/07/26 08:49:26;;;;;;;4.50;3.17;;;;;;;;;;5026035;28;20054;-81
2023/07/26 08:51:53;;;;;;;4.00;3.10;;;;;;;;;;5027015;28;20053;-81
2023/07/26 08:54:20;;;;;;;4.32;3.08;;;;;;;;;;5025596;28;20053;-80
2023/07/26 08:56:48;;;;;;;6.00;3.65;;;;;;;;;;5028815;28;20534;-81
2023/07/26 08:59:14;;;;;;;5.87;3.17;;;;;;;;;;5025898;28;20050;-79
2023/07/26 09:01:41;;;;;;;4.57;3.38;;;;;;;;;;5027648;28;20069;-80
2023/07/26 09:04:10;;;;;;;6.80;3.80;;;;;;;;;;5028559;28;20045;-79
2023/07/26 09:06:40;;;;;;;5.80;3.90;;;;;;;;;;5026325;28;20054;-80
2023/07/26 09:09:07;;;;;;;5.85;4.13;;;;;;;;;;5029524;28;20064;-80
2023/07/26 09:11:34;;;;;;;5.50;3.55;;;;;;;;;;5028923;28;20053;-82
2023/07/26 09:14:03;;;;;;;4.20;3.70;;;;;;;;;;5029564;28;20064;-80
2023/07/26 09:16:31;;;;;;;4.00;3.22;;;;;;;;;;5027842;28;20053;-80
2023/07/26 09:18:59;;;;;;;6.65;3.13;;;;;;;;;;5029735;28;20133;-77
2023/07/26 09:21:26;;;;;;;4.90;3.23;;;;;;;;;;5027803;28;20057;-80
2023/07/26 09:23:55;;;;;;;5.22;3.38;;;;;;;;;;5026585;28;20483;-78
2023/07/26 09:26:31;;;;;;;3.85;2.95;;;;;;;;;;5031149;28;20053;-78
2023/07/26 09:28:57;;;;;;;3.72;2.45;;;;;;;;;;5030296;28;20367;-77
2023/07/26 09:31:31;;;;;;;2.80;2.10;;;;;;;;;;5028982;28;20483;-77
2023/07/26 09:34:02;;;;;;;3.42;2.65;;;;;;;;;;5028906;28;20041;-77
2023/07/26 09:36:40;;;;;;;3.30;2.92;;;;;;;;;;5029977;28;20069;-82
2023/07/26 09:39:09;;;;;;;3.50;3.20;;;;;;;;;;5040013;28;20052;-79
2023/07/26 09:41:37;;;;;;;3.20;2.63;;;;;;;;;;5043946;28;20064;-79
2023/07/26 09:44:05;;;;;;;3.57;2.20;;;;;;;;;;5031130;28;20410;-78
2023/07/26 09:46:46;;;;;;;3.40;2.30;;;;;;;;;;5029769;28;21051;-78
2023/07/26 09:49:13;;;;;;;3.03;1.95;;;;;;;;;;5030383;28;20065;-78
2023/07/26 09:51:41;;;;;;;4.32;2.55;;;;;;;;;;5037093;28;20054;-77
2023/07/26 09:54:11;;;;;;;4.10;2.40;;;;;;;;;;5030439;28;20356;-80
2023/07/26 09:56:39;;;;;;;3.30;2.58;;;;;;;;;;5032294;28;20065;-79
2023/07/26 09:59:09;;;;;;;3.22;2.50;;;;;;;;;;5029778;28;20057;-79
2023/07/26 10:01:38;;;;;;;3.28;2.42;;;;;;;;;;5028697;28;20053;-80
2023/07/26 10:04:06;;;;;;;3.17;2.40;;;;;;;;;;5029502;28;20065;-78
2023/07/26 10:06:35;;;;;;;5.60;2.33;;;;;;;;;;5027371;28;20065;-79
2023/07/26 10:09:02;;;;;;;2.95;2.22;;;;;;;;;;5027496;28;20049;-77
2023/07/26 10:11:31;;;;;;;4.53;2.10;;;;;;;;;;5028649;28;20490;-77
2023/07/26 10:13:59;;;;;;;3.33;2.17;;;;;;;;;;5028165;28;20080;-78
2023/07/26 10:16:26;;;;;;;4.40;2.65;;;;;;;;;;5028700;28;20057;-78
2023/07/26 10:18:54;;;;;;;5.30;1.90;;;;;;;;;;5028439;28;20053;-80
2023/07/26 10:21:21;;;;;;;3.67;1.50;;;;;;;;;;5029122;28;20076;-80
2023/07/26 10:23:51;;;;;;;4.47;2.03;;;;;;;;;;5026389;28;20052;-80
2023/07/26 10:26:19;;;;;;;2.80;1.65;;;;;;;;;;5029382;28;20060;-79
2023/07/26 10:28:47;;;;;;;3.03;1.80;;;;;;;;;;5030374;28;20050;-79
2023/07/26 10:31:14;;;;;;;3.42;1.80;;;;;;;;;;5026096;28;20057;-79
2023/07/26 10:33:44;;;;;;;3.25;1.95;;;;;;;;;;5030039;28;20050;-80
2023/07/26 10:36:12;;;;;;;3.00;1.83;;;;;;;;;;5022486;28;20414;-80
2023/07/26 10:38:40;;;;;;;3.00;1.90;;;;;;;;;;5023991;28;20061;-81
2023/07/26 10:41:24;;;;;;;4.35;1.88;;;;;;;;;;5027181;28;20057;-77
2023/07/26 10:44:01;;;;;;;3.10;1.90;;;;;;;;;;5023973;28;20053;-77
2023/07/26 10:46:28;;;;;;;3.35;1.55;;;;;;;;;;5023759;28;20144;-78
2023/07/26 10:48:55;;;;;;;2.88;2.00;;;;;;;;;;5029492;28;20057;-77
2023/07/26 10:51:23;;;;;;;3.03;2.10;;;;;;;;;;5027600;28;20064;-77
2023/07/26 10:53:50;;;;;;;3.92;2.10;;;;;;;;;;5027618;28;20049;-75
2023/07/26 10:56:19;;;;;;;3.08;2.13;;;;;;;;;;5029149;28;20382;-76
2023/07/26 10:58:50;;;;;;;2.53;1.92;;;;;;;;;;5027623;28;20045;-75
2023/07/26 11:01:35;;;;;;;2.20;1.73;;;;;;;;;;5029964;28;20053;-75
2023/07/26 11:04:02;;;;;;;2.53;1.70;;;;;;;;;;5034702;28;20057;-77
2023/07/26 11:06:47;;;;;;;2.42;1.60;;;;;;;;;;5030342;28;20050;-74
2023/07/26 11:09:19;;;;;;;2.58;1.65;;;;;;;;;;5035811;28;20084;-77
2023/07/26 11:11:54;;;;;;;2.75;1.40;;;;;;;;;;5026951;28;20049;-76
2023/07/26 11:14:23;;;;;;;3.55;1.48;;;;;;;;;;5029909;28;20049;-76
2023/07/26 11:16:51;;;;;;;2.53;1.30;;;;;;;;;;5032022;28;20390;-76
2023/07/26 11:19:20;;;;;;;2.38;1.35;;;;;;;;;;5032114;28;20049;-77
2023/07/26 11:21:48;;;;;;;2.35;1.13;;;;;;;;;;5032804;28;20053;-76
2023/07/26 11:24:15;;;;;;;1.92;1.33;;;;;;;;;;5030151;28;20402;-77
2023/07/26 11:26:43;;;;;;;2.13;1.40;;;;;;;;;;5027004;28;20466;-77
2023/07/26 11:29:12;;;;;;;2.03;1.27;;;;;;;;;;5025106;28;20406;-78
2023/07/26 11:31:39;;;;;;;3.22;1.48;;;;;;;;;;5031563;28;20061;-76
2023/07/26 11:34:17;;;;;;;2.13;1.27;;;;;;;;;;5025428;28;20057;-80
2023/07/26 11:36:44;;;;;;;2.38;1.20;;;;;;;;;;5034178;28;20057;-80
2023/07/26 11:39:21;;;;;;;2.13;1.20;;;;;;;;;;5027086;28;20049;-81
2023/07/26 11:41:48;;;;;;;1.70;1.10;;;;;;;;;;5025354;28;20368;-76
2023/07/26 11:44:16;;;;;;;1.75;1.20;;;;;;;;;;5031905;28;20053;-78
2023/07/26 11:46:44;;;;;;;1.87;1.30;;;;;;;;;;5031892;28;20056;-79
2023/07/26 11:49:11;;;;;;;2.13;1.33;;;;;;;;;;5038507;28;20053;-78
2023/07/26 11:51:40;;;;;;;1.85;1.40;;;;;;;;;;5029419;28;20056;-76
2023/07/26 11:54:11;;;;;;;3.80;1.50;;;;;;;;;;5031973;28;20049;-77
2023/07/26 11:56:38;;;;;;;2.55;1.40;;;;;;;;;;5031361;28;20057;-77
2023/07/26 11:59:05;;;;;;;2.58;1.60;;;;;;;;;;5031453;28;20053;-77
2023/07/26 12:01:33;;;;;;;2.08;1.45;;;;;;;;;;5031439;28;20049;-77
2023/07/26 12:04:01;;;;;;;2.70;1.70;;;;;;;;;;5030545;28;20068;-77
2023/07/26 12:06:31;;;;;;;2.50;1.80;;;;;;;;;;5028267;28;20061;-78
2023/07/26 12:09:03;;;;;;;2.90;1.75;;;;;;;;;;5026387;28;20492;-78
2023/07/26 12:11:31;;;;;;;2.25;1.95;;;;;;;;;;5025095;28;20394;-78
2023/07/26 12:13:58;;;;;;;4.10;2.13;;;;;;;;;;5031931;28;20045;-76
2023/07/26 12:16:28;;;;;;;4.03;2.00;;;;;;;;;;5022095;28;20057;-77
2023/07/26 12:18:57;;;;;;;2.50;1.90;;;;;;;;;;5027018;28;20064;-77
2023/07/26 12:21:25;;;;;;;3.92;2.85;;;;;;;;;;5029489;28;20057;-77
2023/07/26 12:23:52;;;;;;;3.53;1.83;;;;;;;;;;5031464;28;20049;-77
2023/07/26 12:26:19;;;;;;;3.22;2.25;;;;;;;;;;5028545;28;20061;-77
2023/07/26 12:28:48;;;;;;;3.00;2.10;;;;;;;;;;5027721;28;20064;-76
2023/07/26 12:31:19;;;;;;;4.63;2.20;;;;;;;;;;5029712;28;20107;-79
2023/07/26 12:33:56;;;;;;;2.83;1.98;;;;;;;;;;5018290;28;20514;-81
2023/07/26 12:36:23;;;;;;;4.40;2.30;;;;;;;;;;5028769;28;20490;-81
2023/07/26 12:38:50;;;;;;;2.90;2.20;;;;;;;;;;5030618;28;20053;-81
2023/07/26 12:41:17;;;;;;;2.80;2.08;;;;;;;;;;5030912;28;20060;-82
2023/07/26 12:43:44;;;;;;;3.35;2.55;;;;;;;;;;5022916;28;20056;-84
2023/07/26 12:46:13;;;;;;;3.50;2.58;;;;;;;;;;5030655;28;20403;-85
2023/07/26 12:48:39;;;;;;;3.00;2.60;;;;;;;;;;5029620;28;20049;-81
2023/07/26 12:51:06;;;;;;;3.53;2.50;;;;;;;;;;5022801;28;20049;-82
2023/07/26 12:53:33;;;;;;;2.85;2.50;;;;;;;;;;5037027;28;20050;-81
2023/07/26 12:56:00;;;;;;;4.65;3.15;;;;;;;;;;5027329;28;20050;-81
2023/07/26 12:58:27;;;;;;;3.10;2.80;;;;;;;;;;5029706;28;20080;-80
2023/07/26 13:00:54;;;;;;;3.97;3.03;;;;;;;;;;5030412;28;20050;-80
2023/07/26 13:03:22;;;;;;;4.03;2.38;;;;;;;;;;5027415;28;20057;-80
2023/07/26 13:05:50;;;;;;;3.67;2.60;;;;;;;;;;5029711;28;20049;-80
2023/07/26 13:08:17;;;;;;;3.13;2.70;;;;;;;;;;5026419;28;20482;-80
2023/07/26 13:10:44;;;;;;;3.83;2.70;;;;;;;;;;5026795;28;20049;-82
2023/07/26 13:13:11;;;;;;;3.70;2.50;;;;;;;;;;5030274;28;20049;-79
2023/07/26 13:15:37;;;;;;;4.60;2.85;;;;;;;;;;5028853;28;20049;-81
2023/07/26 13:18:04;;;;;;;3.08;2.65;;;;;;;;;;5029911;28;20053;-81
2023/07/26 13:20:32;;;;;;;4.40;3.03;;;;;;;;;;5029174;28;20053;-81
2023/07/26 13:22:59;;;;;;;3.40;2.67;;;;;;;;;;5029905;28;20054;-81
2023/07/26 13:25:26;;;;;;;6.05;3.28;;;;;;;;;;5021313;28;20342;-79
2023/07/26 13:27:53;;;;;;;4.00;2.92;;;;;;;;;;5029861;28;20049;-82
2023/07/26 13:30:20;;;;;;;6.10;3.38;;;;;;;;;;5027256;28;20518;-82
2023/07/26 13:32:48;;;;;;;4.97;3.42;;;;;;;;;;5030436;28;20065;-81
2023/07/26 13:35:15;;;;;;;5.05;3.83;;;;;;;;;;5031014;28;20064;-82
2023/07/26 13:37:43;;;;;;;5.43;4.05;;;;;;;;;;5030643;28;20053;-80
2023/07/26 13:40:15;;;;;;;5.28;4.20;;;;;;;;;;5028584;28;20050;-81
2023/07/26 13:42:44;;;;;;;5.65;3.80;;;;;;;;;;5026647;28;20057;-81
2023/07/26 13:45:13;;;;;;;5.80;3.60;;;;;;;;;;5029796;28;20415;-82
2023/07/26 13:47:40;;;;;;;6.72;4.13;;;;;;;;;;5030410;28;20051;-81
2023/07/26 13:50:10;;;;;;;5.15;3.97;;;;;;;;;;5030855;28;20061;-81
2023/07/26 13:52:40;;;;;;;5.38;3.83;;;;;;;;;;5031112;28;20164;-82
2023/07/26 13:55:08;;;;;;;6.05;4.20;;;;;;;;;;5032556;28;20056;-82
2023/07/26 13:57:35;;;;;;;5.67;4.23;;;;;;;;;;5032309;28;20057;-81
2023/07/26 14:00:06;;;;;;;5.18;3.97;;;;;;;;;;5033127;28;20052;-82
2023/07/26 14:02:33;;;;;;;3.63;3.05;;;;;;;;;;5032889;28;20056;-82
2023/07/26 14:04:59;;;;;;;5.68;2.90;;;;;;;;;;5033147;28;20045;-82
2023/07/26 14:07:26;;;;;;;3.67;3.10;;;;;;;;;;5035047;28;20052;-81
2023/07/26 14:09:53;;;;;;;5.22;3.25;;;;;;;;;;5033102;28;20053;-81
2023/07/26 14:12:21;;;;;;;4.57;3.92;;;;;;;;;;5029682;28;20049;-82
2023/07/26 14:14:48;;;;;;;3.67;3.17;;;;;;;;;;5033349;28;20402;-81
2023/07/26 14:17:15;;;;;;;4.78;3.58;;;;;;;;;;5032694;28;20374;-81
2023/07/26 14:19:41;;;;;;;3.70;3.30;;;;;;;;;;5033032;28;20064;-81
2023/07/26 14:22:08;;;;;;;4.70;3.45;;;;;;;;;;5034622;28;20054;-81
2023/07/26 14:24:35;;;;;;;4.75;3.22;;;;;;;;;;5031558;28;20072;-80
2023/07/26 14:27:02;;;;;;;5.63;3.65;;;;;;;;;;5034581;28;20057;-80
2023/07/26 14:29:30;;;;;;;5.53;3.63;;;;;;;;;;5032967;28;20053;-80
2023/07/26 14:31:57;;;;;;;5.95;3.45;;;;;;;;;;5030071;28;20065;-80
2023/07/26 14:34:23;;;;;;;4.03;3.40;;;;;;;;;;5029247;28;20487;-76
2023/07/26 14:36:50;;;;;;;6.18;3.70;;;;;;;;;;5032192;28;20049;-77
2023/07/26 14:39:17;;;;;;;5.63;3.75;;;;;;;;;;5032759;28;20061;-76
2023/07/26 14:41:49;;;;;;;4.85;3.67;;;;;;;;;;5031104;28;20064;-77
2023/07/26 14:44:16;;;;;;;4.68;3.67;;;;;;;;;;5021343;28;20041;-76
2023/07/26 14:46:45;;;;;;;5.35;4.60;;;;;;;;;;5032353;28;20064;-81